sensor_id;sensor_type;location;lat;lon;timestamp;P1;durP1;ratioP1;P2;durP2;ratioP2
10309;SDS011;5200;43.236;27.986;2023-05-29T00:00:40;6.20;;;5.60;;
10309;SDS011;5200;43.236;27.986;2023-05-29T00:03:07;8.70;;;5.78;;
10309;SDS011;5200;43.236;27.986;2023-05-29T00:05:34;6.63;;;5.03;;
10309;SDS011;5200;43.236;27.986;2023-05-29T00:08:01;7.65;;;5.70;;
10309;SDS011;5200;43.236;27.986;2023-05-29T00:10:28;7.55;;;5.85;;
10309;SDS011;5200;43.236;27.986;2023-05-29T00:12:56;8.75;;;6.13;;
10309;SDS011;5200;43.236;27.986;2023-05-29T00:15:24;8.63;;;5.85;;
10309;SDS011;5200;43.236;27.986;2023-05-29T00:17:51;8.68;;;6.35;;
10309;SDS011;5200;43.236;27.986;2023-05-29T00:20:18;6.68;;;5.93;;
10309;SDS011;5200;43.236;27.986;2023-05-29T00:22:45;8.15;;;6.88;;
10309;SDS011;5200;43.236;27.986;2023-05-29T00:25:12;9.00;;;6.63;;
10309;SDS011;5200;43.236;27.986;2023-05-29T00:27:38;9.20;;;6.70;;
10309;SDS011;5200;43.236;27.986;2023-05-29T00:30:06;7.72;;;6.93;;
10309;SDS011;5200;43.236;27.986;2023-05-29T00:32:35;9.65;;;6.50;;
10309;SDS011;5200;43.236;27.986;2023-05-29T00:35:02;8.60;;;6.40;;
10309;SDS011;5200;43.236;27.986;2023-05-29T00:37:29;7.03;;;5.70;;
10309;SDS011;5200;43.236;27.986;2023-05-29T00:39:55;8.43;;;6.82;;
10309;SDS011;5200;43.236;27.986;2023-05-29T00:42:22;9.60;;;6.18;;
10309;SDS011;5200;43.236;27.986;2023-05-29T00:44:49;7.85;;;6.80;;
10309;SDS011;5200;43.236;27.986;2023-05-29T00:47:16;11.98;;;7.05;;
10309;SDS011;5200;43.236;27.986;2023-05-29T00:49:44;6.85;;;6.15;;
10309;SDS011;5200;43.236;27.986;2023-05-29T00:52:11;8.15;;;6.82;;
10309;SDS011;5200;43.236;27.986;2023-05-29T00:54:38;10.38;;;6.88;;
10309;SDS011;5200;43.236;27.986;2023-05-29T00:57:10;8.02;;;7.20;;
10309;SDS011;5200;43.236;27.986;2023-05-29T00:59:38;11.15;;;6.70;;
10309;SDS011;5200;43.236;27.986;2023-05-29T01:02:06;6.80;;;6.13;;
10309;SDS011;5200;43.236;27.986;2023-05-29T01:04:33;9.13;;;7.10;;
10309;SDS011;5200;43.236;27.986;2023-05-29T01:07:02;9.40;;;6.88;;
10309;SDS011;5200;43.236;27.986;2023-05-29T01:09:29;14.95;;;7.82;;
10309;SDS011;5200;43.236;27.986;2023-05-29T01:12:01;9.48;;;8.02;;
10309;SDS011;5200;43.236;27.986;2023-05-29T01:14:42;9.50;;;8.30;;
10309;SDS011;5200;43.236;27.986;2023-05-29T01:17:19;10.27;;;8.35;;
10309;SDS011;5200;43.236;27.986;2023-05-29T01:20:06;14.07;;;9.77;;
10309;SDS011;5200;43.236;27.986;2023-05-29T01:22:50;12.50;;;8.93;;
10309;SDS011;5200;43.236;27.986;2023-05-29T01:25:35;10.90;;;9.27;;
10309;SDS011;5200;43.236;27.986;2023-05-29T01:28:25;12.20;;;8.50;;
10309;SDS011;5200;43.236;27.986;2023-05-29T01:30:58;15.38;;;10.43;;
10309;SDS011;5200;43.236;27.986;2023-05-29T01:33:26;15.75;;;9.60;;
10309;SDS011;5200;43.236;27.986;2023-05-29T01:35:53;17.13;;;10.55;;
10309;SDS011;5200;43.236;27.986;2023-05-29T01:38:20;17.15;;;10.82;;
10309;SDS011;5200;43.236;27.986;2023-05-29T01:40:47;17.20;;;11.65;;
10309;SDS011;5200;43.236;27.986;2023-05-29T01:43:14;16.80;;;10.98;;
10309;SDS011;5200;43.236;27.986;2023-05-29T01:45:43;16.58;;;11.55;;
10309;SDS011;5200;43.236;27.986;2023-05-29T01:48:10;16.13;;;12.13;;
10309;SDS011;5200;43.236;27.986;2023-05-29T01:50:37;17.20;;;11.90;;
10309;SDS011;5200;43.236;27.986;2023-05-29T01:53:05;18.23;;;11.18;;
10309;SDS011;5200;43.236;27.986;2023-05-29T01:55:31;17.50;;;11.95;;
10309;SDS011;5200;43.236;27.986;2023-05-29T01:57:58;23.35;;;13.85;;
10309;SDS011;5200;43.236;27.986;2023-05-29T02:00:26;17.38;;;12.45;;
10309;SDS011;5200;43.236;27.986;2023-05-29T02:02:56;14.32;;;11.13;;
10309;SDS011;5200;43.236;27.986;2023-05-29T02:05:23;19.83;;;13.80;;
10309;SDS011;5200;43.236;27.986;2023-05-29T02:07:49;16.02;;;12.60;;
10309;SDS011;5200;43.236;27.986;2023-05-29T02:10:16;21.10;;;12.20;;
10309;SDS011;5200;43.236;27.986;2023-05-29T02:12:43;15.15;;;11.43;;
10309;SDS011;5200;43.236;27.986;2023-05-29T02:15:10;17.33;;;13.45;;
10309;SDS011;5200;43.236;27.986;2023-05-29T02:17:37;16.33;;;13.07;;
10309;SDS011;5200;43.236;27.986;2023-05-29T02:20:06;17.48;;;11.98;;
10309;SDS011;5200;43.236;27.986;2023-05-29T02:22:33;15.73;;;13.20;;
10309;SDS011;5200;43.236;27.986;2023-05-29T02:25:00;17.58;;;12.95;;
10309;SDS011;5200;43.236;27.986;2023-05-29T02:27:27;22.10;;;11.35;;
10309;SDS011;5200;43.236;27.986;2023-05-29T02:29:53;19.02;;;12.35;;
10309;SDS011;5200;43.236;27.986;2023-05-29T02:32:20;16.08;;;12.48;;
10309;SDS011;5200;43.236;27.986;2023-05-29T02:34:47;16.00;;;11.43;;
10309;SDS011;5200;43.236;27.986;2023-05-29T02:37:16;15.95;;;11.23;;
10309;SDS011;5200;43.236;27.986;2023-05-29T02:39:43;13.25;;;11.30;;
10309;SDS011;5200;43.236;27.986;2023-05-29T02:42:10;15.52;;;11.20;;
10309;SDS011;5200;43.236;27.986;2023-05-29T02:44:36;14.02;;;10.73;;
10309;SDS011;5200;43.236;27.986;2023-05-29T02:47:03;16.13;;;12.38;;
10309;SDS011;5200;43.236;27.986;2023-05-29T02:49:31;12.95;;;10.18;;
10309;SDS011;5200;43.236;27.986;2023-05-29T02:51:57;12.45;;;9.52;;
10309;SDS011;5200;43.236;27.986;2023-05-29T02:54:26;17.98;;;10.48;;
10309;SDS011;5200;43.236;27.986;2023-05-29T02:56:53;10.40;;;8.18;;
10309;SDS011;5200;43.236;27.986;2023-05-29T02:59:20;13.35;;;9.52;;
10309;SDS011;5200;43.236;27.986;2023-05-29T03:01:46;13.75;;;9.60;;
10309;SDS011;5200;43.236;27.986;2023-05-29T03:04:13;14.02;;;9.25;;
10309;SDS011;5200;43.236;27.986;2023-05-29T03:06:42;14.35;;;9.23;;
10309;SDS011;5200;43.236;27.986;2023-05-29T03:09:10;12.75;;;9.38;;
10309;SDS011;5200;43.236;27.986;2023-05-29T03:11:39;10.85;;;9.52;;
10309;SDS011;5200;43.236;27.986;2023-05-29T03:14:06;12.85;;;9.65;;
10309;SDS011;5200;43.236;27.986;2023-05-29T03:16:32;12.57;;;8.80;;
10309;SDS011;5200;43.236;27.986;2023-05-29T03:19:01;13.20;;;9.45;;
10309;SDS011;5200;43.236;27.986;2023-05-29T03:21:28;14.05;;;10.25;;
10309;SDS011;5200;43.236;27.986;2023-05-29T03:23:56;11.80;;;9.45;;
10309;SDS011;5200;43.236;27.986;2023-05-29T03:26:23;11.65;;;9.25;;
10309;SDS011;5200;43.236;27.986;2023-05-29T03:28:52;13.32;;;9.23;;
10309;SDS011;5200;43.236;27.986;2023-05-29T03:31:19;13.02;;;9.60;;
10309;SDS011;5200;43.236;27.986;2023-05-29T03:33:46;10.43;;;9.32;;
10309;SDS011;5200;43.236;27.986;2023-05-29T03:36:13;13.48;;;9.07;;
10309;SDS011;5200;43.236;27.986;2023-05-29T03:38:42;12.32;;;9.07;;
10309;SDS011;5200;43.236;27.986;2023-05-29T03:41:08;12.48;;;9.10;;
10309;SDS011;5200;43.236;27.986;2023-05-29T03:43:35;10.63;;;9.15;;
10309;SDS011;5200;43.236;27.986;2023-05-29T03:46:04;10.70;;;8.88;;
10309;SDS011;5200;43.236;27.986;2023-05-29T03:48:31;12.68;;;9.57;;
10309;SDS011;5200;43.236;27.986;2023-05-29T03:50:57;15.48;;;8.88;;
10309;SDS011;5200;43.236;27.986;2023-05-29T03:53:24;12.27;;;9.10;;
10309;SDS011;5200;43.236;27.986;2023-05-29T03:55:51;12.88;;;8.75;;
10309;SDS011;5200;43.236;27.986;2023-05-29T03:58:18;13.40;;;8.60;;
10309;SDS011;5200;43.236;27.986;2023-05-29T04:00:44;12.05;;;8.98;;
10309;SDS011;5200;43.236;27.986;2023-05-29T04:03:13;14.00;;;8.13;;
10309;SDS011;5200;43.236;27.986;2023-05-29T04:05:40;9.75;;;8.02;;
10309;SDS011;5200;43.236;27.986;2023-05-29T04:08:06;8.88;;;7.57;;
10309;SDS011;5200;43.236;27.986;2023-05-29T04:10:34;11.82;;;7.85;;
10309;SDS011;5200;43.236;27.986;2023-05-29T04:13:02;12.90;;;8.18;;
10309;SDS011;5200;43.236;27.986;2023-05-29T04:15:28;9.70;;;7.65;;
10309;SDS011;5200;43.236;27.986;2023-05-29T04:17:55;11.93;;;8.80;;
10309;SDS011;5200;43.236;27.986;2023-05-29T04:20:23;9.23;;;7.78;;
10309;SDS011;5200;43.236;27.986;2023-05-29T04:22:50;9.77;;;7.93;;
10309;SDS011;5200;43.236;27.986;2023-05-29T04:25:18;11.70;;;8.27;;
10309;SDS011;5200;43.236;27.986;2023-05-29T04:27:45;12.52;;;8.05;;
10309;SDS011;5200;43.236;27.986;2023-05-29T04:30:14;12.68;;;8.48;;
10309;SDS011;5200;43.236;27.986;2023-05-29T04:32:41;11.23;;;8.68;;
10309;SDS011;5200;43.236;27.986;2023-05-29T04:35:08;10.57;;;8.25;;
10309;SDS011;5200;43.236;27.986;2023-05-29T04:37:37;13.07;;;8.48;;
10309;SDS011;5200;43.236;27.986;2023-05-29T04:40:05;10.80;;;7.53;;
10309;SDS011;5200;43.236;27.986;2023-05-29T04:42:34;10.23;;;8.27;;
10309;SDS011;5200;43.236;27.986;2023-05-29T04:45:01;13.55;;;8.45;;
10309;SDS011;5200;43.236;27.986;2023-05-29T04:47:29;13.43;;;8.50;;
10309;SDS011;5200;43.236;27.986;2023-05-29T04:49:58;14.80;;;9.02;;
10309;SDS011;5200;43.236;27.986;2023-05-29T04:52:25;12.93;;;8.95;;
10309;SDS011;5200;43.236;27.986;2023-05-29T04:54:53;10.70;;;8.48;;
10309;SDS011;5200;43.236;27.986;2023-05-29T04:57:21;12.73;;;9.23;;
10309;SDS011;5200;43.236;27.986;2023-05-29T04:59:48;10.27;;;8.25;;
10309;SDS011;5200;43.236;27.986;2023-05-29T05:02:15;13.77;;;8.15;;
10309;SDS011;5200;43.236;27.986;2023-05-29T05:04:42;10.45;;;8.15;;
10309;SDS011;5200;43.236;27.986;2023-05-29T05:07:10;11.88;;;9.25;;
10309;SDS011;5200;43.236;27.986;2023-05-29T05:09:37;9.60;;;7.63;;
10309;SDS011;5200;43.236;27.986;2023-05-29T05:12:06;9.15;;;7.50;;
10309;SDS011;5200;43.236;27.986;2023-05-29T05:14:33;8.82;;;7.22;;
10309;SDS011;5200;43.236;27.986;2023-05-29T05:17:00;9.93;;;7.60;;
10309;SDS011;5200;43.236;27.986;2023-05-29T05:19:27;10.05;;;7.32;;
10309;SDS011;5200;43.236;27.986;2023-05-29T05:21:54;8.30;;;7.10;;
10309;SDS011;5200;43.236;27.986;2023-05-29T05:24:20;15.48;;;8.38;;
10309;SDS011;5200;43.236;27.986;2023-05-29T05:26:47;8.40;;;7.28;;
10309;SDS011;5200;43.236;27.986;2023-05-29T05:29:16;9.30;;;7.00;;
10309;SDS011;5200;43.236;27.986;2023-05-29T05:31:43;7.15;;;6.45;;
10309;SDS011;5200;43.236;27.986;2023-05-29T05:34:10;8.45;;;7.45;;
10309;SDS011;5200;43.236;27.986;2023-05-29T05:36:36;12.75;;;7.50;;
10309;SDS011;5200;43.236;27.986;2023-05-29T05:39:03;8.07;;;6.88;;
10309;SDS011;5200;43.236;27.986;2023-05-29T05:41:30;12.00;;;7.07;;
10309;SDS011;5200;43.236;27.986;2023-05-29T05:43:57;7.93;;;6.70;;
10309;SDS011;5200;43.236;27.986;2023-05-29T05:46:25;11.95;;;7.22;;
10309;SDS011;5200;43.236;27.986;2023-05-29T05:48:52;7.72;;;6.90;;
10309;SDS011;5200;43.236;27.986;2023-05-29T05:51:22;8.15;;;7.13;;
10309;SDS011;5200;43.236;27.986;2023-05-29T05:53:48;15.73;;;7.72;;
10309;SDS011;5200;43.236;27.986;2023-05-29T05:56:15;9.23;;;7.80;;
10309;SDS011;5200;43.236;27.986;2023-05-29T05:58:42;12.88;;;7.85;;
10309;SDS011;5200;43.236;27.986;2023-05-29T06:01:09;10.52;;;7.75;;
10309;SDS011;5200;43.236;27.986;2023-05-29T06:03:37;8.63;;;7.13;;
10309;SDS011;5200;43.236;27.986;2023-05-29T06:06:04;9.10;;;8.00;;
10309;SDS011;5200;43.236;27.986;2023-05-29T06:08:32;7.93;;;7.13;;
10309;SDS011;5200;43.236;27.986;2023-05-29T06:10:59;10.38;;;8.23;;
10309;SDS011;5200;43.236;27.986;2023-05-29T06:13:26;10.18;;;8.07;;
10309;SDS011;5200;43.236;27.986;2023-05-29T06:15:53;13.68;;;7.78;;
10309;SDS011;5200;43.236;27.986;2023-05-29T06:18:20;10.45;;;8.07;;
10309;SDS011;5200;43.236;27.986;2023-05-29T06:20:48;12.63;;;8.55;;
10309;SDS011;5200;43.236;27.986;2023-05-29T06:23:15;12.10;;;8.10;;
10309;SDS011;5200;43.236;27.986;2023-05-29T06:25:42;12.95;;;8.48;;
10309;SDS011;5200;43.236;27.986;2023-05-29T06:28:09;10.60;;;8.90;;
10309;SDS011;5200;43.236;27.986;2023-05-29T06:30:36;12.27;;;9.00;;
10309;SDS011;5200;43.236;27.986;2023-05-29T06:33:03;11.98;;;9.70;;
10309;SDS011;5200;43.236;27.986;2023-05-29T06:35:29;11.45;;;8.90;;
10309;SDS011;5200;43.236;27.986;2023-05-29T06:37:58;13.68;;;9.88;;
10309;SDS011;5200;43.236;27.986;2023-05-29T06:40:24;10.50;;;8.95;;
10309;SDS011;5200;43.236;27.986;2023-05-29T06:42:51;13.27;;;9.85;;
10309;SDS011;5200;43.236;27.986;2023-05-29T06:45:18;13.40;;;10.25;;
10309;SDS011;5200;43.236;27.986;2023-05-29T06:47:45;11.27;;;9.75;;
10309;SDS011;5200;43.236;27.986;2023-05-29T06:50:12;14.40;;;9.48;;
10309;SDS011;5200;43.236;27.986;2023-05-29T06:52:40;11.63;;;8.95;;
10309;SDS011;5200;43.236;27.986;2023-05-29T06:55:08;12.88;;;9.82;;
10309;SDS011;5200;43.236;27.986;2023-05-29T06:57:35;13.07;;;9.70;;
10309;SDS011;5200;43.236;27.986;2023-05-29T07:00:02;9.10;;;5.47;;
10309;SDS011;5200;43.236;27.986;2023-05-29T07:02:30;9.15;;;5.78;;
10309;SDS011;5200;43.236;27.986;2023-05-29T07:04:57;8.70;;;5.40;;
10309;SDS011;5200;43.236;27.986;2023-05-29T07:07:24;6.05;;;4.47;;
10309;SDS011;5200;43.236;27.986;2023-05-29T07:09:51;8.82;;;3.20;;
10309;SDS011;5200;43.236;27.986;2023-05-29T07:12:19;5.45;;;3.80;;
10309;SDS011;5200;43.236;27.986;2023-05-29T07:14:46;7.75;;;4.05;;
10309;SDS011;5200;43.236;27.986;2023-05-29T07:17:13;4.97;;;3.50;;
10309;SDS011;5200;43.236;27.986;2023-05-29T07:19:40;8.57;;;4.25;;
10309;SDS011;5200;43.236;27.986;2023-05-29T07:22:07;4.80;;;4.10;;
10309;SDS011;5200;43.236;27.986;2023-05-29T07:24:34;4.78;;;4.22;;
10309;SDS011;5200;43.236;27.986;2023-05-29T07:27:00;6.93;;;4.65;;
10309;SDS011;5200;43.236;27.986;2023-05-29T07:29:28;6.78;;;4.32;;
10309;SDS011;5200;43.236;27.986;2023-05-29T07:31:55;6.38;;;5.05;;
10309;SDS011;5200;43.236;27.986;2023-05-29T07:34:22;5.45;;;4.88;;
10309;SDS011;5200;43.236;27.986;2023-05-29T07:36:59;6.57;;;5.90;;
10309;SDS011;5200;43.236;27.986;2023-05-29T07:39:27;8.35;;;6.03;;
10309;SDS011;5200;43.236;27.986;2023-05-29T07:41:54;9.98;;;5.97;;
10309;SDS011;5200;43.236;27.986;2023-05-29T07:44:21;7.38;;;5.28;;
10309;SDS011;5200;43.236;27.986;2023-05-29T07:46:50;7.82;;;6.05;;
10309;SDS011;5200;43.236;27.986;2023-05-29T07:49:17;0.00;;;0.00;;
10309;SDS011;5200;43.236;27.986;2023-05-29T07:51:43;1.95;;;1.85;;
10309;SDS011;5200;43.236;27.986;2023-05-29T07:54:10;0.03;;;0.03;;
10309;SDS011;5200;43.236;27.986;2023-05-29T07:56:37;0.00;;;0.00;;
10309;SDS011;5200;43.236;27.986;2023-05-29T07:59:05;0.00;;;0.00;;
10309;SDS011;5200;43.236;27.986;2023-05-29T08:01:34;0.00;;;0.00;;
10309;SDS011;5200;43.236;27.986;2023-05-29T08:04:02;0.00;;;0.00;;
10309;SDS011;5200;43.236;27.986;2023-05-29T08:06:29;0.00;;;0.00;;
10309;SDS011;5200;43.236;27.986;2023-05-29T08:08:57;0.35;;;0.30;;
10309;SDS011;5200;43.236;27.986;2023-05-29T08:11:24;0.00;;;0.00;;
10309;SDS011;5200;43.236;27.986;2023-05-29T08:13:51;0.00;;;0.00;;
10309;SDS011;5200;43.236;27.986;2023-05-29T08:16:18;0.00;;;0.00;;
10309;SDS011;5200;43.236;27.986;2023-05-29T08:18:45;0.00;;;0.00;;
10309;SDS011;5200;43.236;27.986;2023-05-29T08:21:13;0.00;;;0.00;;
10309;SDS011;5200;43.236;27.986;2023-05-29T08:23:40;0.00;;;0.00;;
10309;SDS011;5200;43.236;27.986;2023-05-29T08:26:06;0.00;;;0.00;;
10309;SDS011;5200;43.236;27.986;2023-05-29T08:28:33;0.00;;;0.00;;
10309;SDS011;5200;43.236;27.986;2023-05-29T08:31:00;0.00;;;0.00;;
10309;SDS011;5200;43.236;27.986;2023-05-29T08:33:27;0.00;;;0.00;;
10309;SDS011;5200;43.236;27.986;2023-05-29T08:35:54;0.00;;;0.00;;
10309;SDS011;5200;43.236;27.986;2023-05-29T08:38:22;0.05;;;0.05;;
10309;SDS011;5200;43.236;27.986;2023-05-29T08:40:50;0.20;;;0.20;;
10309;SDS011;5200;43.236;27.986;2023-05-29T08:43:18;0.13;;;0.13;;
10309;SDS011;5200;43.236;27.986;2023-05-29T08:45:47;0.10;;;0.10;;
10309;SDS011;5200;43.236;27.986;2023-05-29T08:48:18;0.00;;;0.00;;
10309;SDS011;5200;43.236;27.986;2023-05-29T08:50:48;0.00;;;0.00;;
10309;SDS011;5200;43.236;27.986;2023-05-29T08:53:17;0.00;;;0.00;;
10309;SDS011;5200;43.236;27.986;2023-05-29T08:55:46;0.00;;;0.00;;
10309;SDS011;5200;43.236;27.986;2023-05-29T08:58:16;0.00;;;0.00;;
10309;SDS011;5200;43.236;27.986;2023-05-29T09:00:43;0.00;;;0.00;;
10309;SDS011;5200;43.236;27.986;2023-05-29T09:03:12;0.00;;;0.00;;
10309;SDS011;5200;43.236;27.986;2023-05-29T09:05:40;0.10;;;0.10;;
10309;SDS011;5200;43.236;27.986;2023-05-29T09:08:09;0.00;;;0.00;;
10309;SDS011;5200;43.236;27.986;2023-05-29T09:10:37;0.70;;;0.52;;
10309;SDS011;5200;43.236;27.986;2023-05-29T09:13:06;0.00;;;0.00;;
10309;SDS011;5200;43.236;27.986;2023-05-29T09:15:35;0.15;;;0.15;;
10309;SDS011;5200;43.236;27.986;2023-05-29T09:18:03;0.00;;;0.00;;
10309;SDS011;5200;43.236;27.986;2023-05-29T09:20:31;0.90;;;0.70;;
10309;SDS011;5200;43.236;27.986;2023-05-29T09:22:58;0.00;;;0.00;;
10309;SDS011;5200;43.236;27.986;2023-05-29T09:25:28;0.00;;;0.00;;
10309;SDS011;5200;43.236;27.986;2023-05-29T09:27:58;0.00;;;0.00;;
10309;SDS011;5200;43.236;27.986;2023-05-29T09:30:32;0.10;;;0.10;;
10309;SDS011;5200;43.236;27.986;2023-05-29T09:33:02;0.00;;;0.00;;
10309;SDS011;5200;43.236;27.986;2023-05-29T09:35:33;0.00;;;0.00;;
10309;SDS011;5200;43.236;27.986;2023-05-29T09:38:01;0.00;;;0.00;;
10309;SDS011;5200;43.236;27.986;2023-05-29T09:40:31;0.00;;;0.00;;
10309;SDS011;5200;43.236;27.986;2023-05-29T09:43:02;0.00;;;0.00;;
10309;SDS011;5200;43.236;27.986;2023-05-29T09:45:34;0.08;;;0.08;;
10309;SDS011;5200;43.236;27.986;2023-05-29T09:48:05;0.00;;;0.00;;
10309;SDS011;5200;43.236;27.986;2023-05-29T09:50:32;0.00;;;0.00;;
10309;SDS011;5200;43.236;27.986;2023-05-29T09:53:00;0.03;;;0.03;;
10309;SDS011;5200;43.236;27.986;2023-05-29T09:55:28;0.00;;;0.00;;
10309;SDS011;5200;43.236;27.986;2023-05-29T09:57:57;0.13;;;0.13;;
10309;SDS011;5200;43.236;27.986;2023-05-29T10:00:25;0.00;;;0.00;;
10309;SDS011;5200;43.236;27.986;2023-05-29T10:02:53;0.63;;;0.20;;
10309;SDS011;5200;43.236;27.986;2023-05-29T10:05:21;0.10;;;0.10;;
10309;SDS011;5200;43.236;27.986;2023-05-29T10:07:47;0.00;;;0.00;;
10309;SDS011;5200;43.236;27.986;2023-05-29T10:10:18;0.00;;;0.00;;
10309;SDS011;5200;43.236;27.986;2023-05-29T10:12:48;0.03;;;0.03;;
10309;SDS011;5200;43.236;27.986;2023-05-29T10:15:16;0.00;;;0.00;;
10309;SDS011;5200;43.236;27.986;2023-05-29T10:17:49;0.00;;;0.00;;
10309;SDS011;5200;43.236;27.986;2023-05-29T10:20:21;0.00;;;0.00;;
10309;SDS011;5200;43.236;27.986;2023-05-29T10:22:50;0.00;;;0.00;;
10309;SDS011;5200;43.236;27.986;2023-05-29T10:25:18;0.00;;;0.00;;
10309;SDS011;5200;43.236;27.986;2023-05-29T10:27:46;0.00;;;0.00;;
10309;SDS011;5200;43.236;27.986;2023-05-29T10:30:16;0.20;;;0.20;;
10309;SDS011;5200;43.236;27.986;2023-05-29T10:32:56;0.10;;;0.10;;
10309;SDS011;5200;43.236;27.986;2023-05-29T10:35:38;0.35;;;0.32;;
10309;SDS011;5200;43.236;27.986;2023-05-29T10:38:12;7.38;;;6.68;;
10309;SDS011;5200;43.236;27.986;2023-05-29T10:40:41;7.90;;;7.10;;
10309;SDS011;5200;43.236;27.986;2023-05-29T10:43:08;8.40;;;7.50;;
10309;SDS011;5200;43.236;27.986;2023-05-29T10:45:55;10.82;;;7.80;;
10309;SDS011;5200;43.236;27.986;2023-05-29T10:48:38;9.43;;;7.25;;
10309;SDS011;5200;43.236;27.986;2023-05-29T10:51:08;8.35;;;7.43;;
10309;SDS011;5200;43.236;27.986;2023-05-29T10:53:49;9.77;;;7.97;;
10309;SDS011;5200;43.236;27.986;2023-05-29T10:56:20;8.32;;;6.60;;
10309;SDS011;5200;43.236;27.986;2023-05-29T10:58:53;8.68;;;7.40;;
10309;SDS011;5200;43.236;27.986;2023-05-29T11:01:21;7.47;;;6.78;;
10309;SDS011;5200;43.236;27.986;2023-05-29T11:03:49;8.05;;;7.03;;
10309;SDS011;5200;43.236;27.986;2023-05-29T11:06:19;9.85;;;5.45;;
10309;SDS011;5200;43.236;27.986;2023-05-29T11:08:52;9.00;;;5.60;;
10309;SDS011;5200;43.236;27.986;2023-05-29T11:11:28;6.38;;;5.78;;
10309;SDS011;5200;43.236;27.986;2023-05-29T11:13:57;6.82;;;6.10;;
10309;SDS011;5200;43.236;27.986;2023-05-29T11:16:37;5.10;;;4.60;;
10309;SDS011;5200;43.236;27.986;2023-05-29T11:19:04;4.85;;;4.45;;
10309;SDS011;5200;43.236;27.986;2023-05-29T11:21:35;4.50;;;4.10;;
10309;SDS011;5200;43.236;27.986;2023-05-29T11:24:19;8.55;;;3.60;;
10309;SDS011;5200;43.236;27.986;2023-05-29T11:26:49;3.90;;;3.50;;
10309;SDS011;5200;43.236;27.986;2023-05-29T11:29:18;5.75;;;2.97;;
10309;SDS011;5200;43.236;27.986;2023-05-29T11:31:48;3.85;;;3.42;;
10309;SDS011;5200;43.236;27.986;2023-05-29T11:34:21;3.00;;;2.72;;
10309;SDS011;5200;43.236;27.986;2023-05-29T11:36:52;2.90;;;2.70;;
10309;SDS011;5200;43.236;27.986;2023-05-29T11:39:19;4.30;;;2.72;;
10309;SDS011;5200;43.236;27.986;2023-05-29T11:41:49;2.45;;;2.25;;
10309;SDS011;5200;43.236;27.986;2023-05-29T11:44:16;3.38;;;2.40;;
10309;SDS011;5200;43.236;27.986;2023-05-29T11:46:43;2.47;;;2.28;;
10309;SDS011;5200;43.236;27.986;2023-05-29T11:49:10;2.38;;;1.70;;
10309;SDS011;5200;43.236;27.986;2023-05-29T11:51:37;1.92;;;1.77;;
10309;SDS011;5200;43.236;27.986;2023-05-29T11:54:05;1.98;;;1.77;;
10309;SDS011;5200;43.236;27.986;2023-05-29T11:56:32;2.38;;;2.20;;
10309;SDS011;5200;43.236;27.986;2023-05-29T11:58:59;1.65;;;1.55;;
10309;SDS011;5200;43.236;27.986;2023-05-29T12:01:30;1.70;;;1.60;;
10309;SDS011;5200;43.236;27.986;2023-05-29T12:04:00;2.70;;;2.50;;
10309;SDS011;5200;43.236;27.986;2023-05-29T12:06:31;2.25;;;2.15;;
10309;SDS011;5200;43.236;27.986;2023-05-29T12:08:59;2.70;;;2.50;;
10309;SDS011;5200;43.236;27.986;2023-05-29T12:11:28;2.42;;;2.22;;
10309;SDS011;5200;43.236;27.986;2023-05-29T12:13:56;2.53;;;2.30;;
10309;SDS011;5200;43.236;27.986;2023-05-29T12:16:23;3.90;;;2.70;;
10309;SDS011;5200;43.236;27.986;2023-05-29T12:18:51;3.13;;;2.40;;
10309;SDS011;5200;43.236;27.986;2023-05-29T12:21:18;2.75;;;2.03;;
10309;SDS011;5200;43.236;27.986;2023-05-29T12:23:51;2.60;;;2.40;;
10309;SDS011;5200;43.236;27.986;2023-05-29T12:26:21;2.80;;;2.50;;
10309;SDS011;5200;43.236;27.986;2023-05-29T12:28:49;3.50;;;2.30;;
10309;SDS011;5200;43.236;27.986;2023-05-29T12:31:26;2.53;;;2.33;;
10309;SDS011;5200;43.236;27.986;2023-05-29T12:33:54;2.60;;;2.40;;
10309;SDS011;5200;43.236;27.986;2023-05-29T12:36:26;2.33;;;2.13;;
10309;SDS011;5200;43.236;27.986;2023-05-29T12:38:52;4.40;;;2.80;;
10309;SDS011;5200;43.236;27.986;2023-05-29T12:41:23;2.90;;;2.70;;
10309;SDS011;5200;43.236;27.986;2023-05-29T12:43:53;3.38;;;3.08;;
10309;SDS011;5200;43.236;27.986;2023-05-29T12:46:21;2.78;;;2.58;;
10309;SDS011;5200;43.236;27.986;2023-05-29T12:48:49;3.38;;;2.70;;
10309;SDS011;5200;43.236;27.986;2023-05-29T12:51:17;4.10;;;2.63;;
10309;SDS011;5200;43.236;27.986;2023-05-29T12:53:48;4.43;;;3.00;;
10309;SDS011;5200;43.236;27.986;2023-05-29T12:56:15;2.95;;;2.75;;
10309;SDS011;5200;43.236;27.986;2023-05-29T12:58:42;3.35;;;2.90;;
10309;SDS011;5200;43.236;27.986;2023-05-29T13:01:13;3.63;;;3.05;;
10309;SDS011;5200;43.236;27.986;2023-05-29T13:03:40;3.28;;;2.97;;
10309;SDS011;5200;43.236;27.986;2023-05-29T13:06:07;3.42;;;3.13;;
10309;SDS011;5200;43.236;27.986;2023-05-29T13:08:34;3.47;;;3.17;;
10309;SDS011;5200;43.236;27.986;2023-05-29T13:11:01;3.25;;;2.95;;
10309;SDS011;5200;43.236;27.986;2023-05-29T13:13:28;3.65;;;3.20;;
10309;SDS011;5200;43.236;27.986;2023-05-29T13:15:55;3.55;;;3.22;;
10309;SDS011;5200;43.236;27.986;2023-05-29T13:18:23;2.90;;;2.70;;
10309;SDS011;5200;43.236;27.986;2023-05-29T13:20:50;3.83;;;3.38;;
10309;SDS011;5200;43.236;27.986;2023-05-29T13:23:17;4.78;;;3.67;;
10309;SDS011;5200;43.236;27.986;2023-05-29T13:25:44;4.20;;;3.65;;
10309;SDS011;5200;43.236;27.986;2023-05-29T13:28:13;3.95;;;3.55;;
10309;SDS011;5200;43.236;27.986;2023-05-29T13:30:40;4.07;;;3.20;;
10309;SDS011;5200;43.236;27.986;2023-05-29T13:33:06;4.32;;;3.45;;
10309;SDS011;5200;43.236;27.986;2023-05-29T13:35:34;3.65;;;3.35;;
10309;SDS011;5200;43.236;27.986;2023-05-29T13:38:01;3.53;;;3.22;;
10309;SDS011;5200;43.236;27.986;2023-05-29T13:40:28;3.80;;;3.47;;
10309;SDS011;5200;43.236;27.986;2023-05-29T13:42:57;7.10;;;3.70;;
10309;SDS011;5200;43.236;27.986;2023-05-29T13:45:23;7.32;;;4.13;;
10309;SDS011;5200;43.236;27.986;2023-05-29T13:47:53;4.00;;;3.60;;
10309;SDS011;5200;43.236;27.986;2023-05-29T13:50:20;5.68;;;3.50;;
10309;SDS011;5200;43.236;27.986;2023-05-29T13:52:50;4.40;;;3.80;;
10309;SDS011;5200;43.236;27.986;2023-05-29T13:55:16;4.10;;;3.70;;
10309;SDS011;5200;43.236;27.986;2023-05-29T13:57:43;6.25;;;3.47;;
10309;SDS011;5200;43.236;27.986;2023-05-29T14:00:10;7.30;;;3.63;;
10309;SDS011;5200;43.236;27.986;2023-05-29T14:02:38;3.75;;;3.45;;
10309;SDS011;5200;43.236;27.986;2023-05-29T14:05:05;3.70;;;3.40;;
10309;SDS011;5200;43.236;27.986;2023-05-29T14:07:32;8.95;;;4.20;;
10309;SDS011;5200;43.236;27.986;2023-05-29T14:10:01;4.80;;;4.10;;
10309;SDS011;5200;43.236;27.986;2023-05-29T14:12:28;4.68;;;4.28;;
10309;SDS011;5200;43.236;27.986;2023-05-29T14:14:55;4.03;;;3.60;;
10309;SDS011;5200;43.236;27.986;2023-05-29T14:17:22;6.47;;;3.78;;
10309;SDS011;5200;43.236;27.986;2023-05-29T14:19:48;6.70;;;3.67;;
10309;SDS011;5200;43.236;27.986;2023-05-29T14:22:15;5.95;;;4.57;;
10309;SDS011;5200;43.236;27.986;2023-05-29T14:24:42;4.93;;;3.78;;
10309;SDS011;5200;43.236;27.986;2023-05-29T14:27:10;5.20;;;4.70;;
10309;SDS011;5200;43.236;27.986;2023-05-29T14:29:37;4.68;;;4.22;;
10309;SDS011;5200;43.236;27.986;2023-05-29T14:32:04;6.40;;;4.20;;
10309;SDS011;5200;43.236;27.986;2023-05-29T14:34:31;5.40;;;3.80;;
10309;SDS011;5200;43.236;27.986;2023-05-29T14:36:58;4.60;;;3.72;;
10309;SDS011;5200;43.236;27.986;2023-05-29T14:39:25;7.63;;;4.45;;
10309;SDS011;5200;43.236;27.986;2023-05-29T14:41:52;4.55;;;4.15;;
10309;SDS011;5200;43.236;27.986;2023-05-29T14:44:20;6.65;;;4.30;;
10309;SDS011;5200;43.236;27.986;2023-05-29T14:46:47;4.72;;;4.03;;
10309;SDS011;5200;43.236;27.986;2023-05-29T14:49:13;7.40;;;4.13;;